Ana Sayfa
METAR-TAF:

METAR-TAF

Havaalanları :

Meriden-Markham Municipal Airport

Meriden, Connecticut, Amerika Birleşik Devletleri

Enlem: 41-30-35N, Boylam: 072-49-40W, yükseklik: 31 m

Güncel hava durumu gözlemi

Rapor saat 08:53 UTC de 22 dakika önce yapıldı.
Sakin rüzgar
Sıcaklık 19°C
Nem 94%
Basınç 1015 hPa
Görüş mesafesi: 14.5 km
3800 ft yükseklikte çok bulutlu
hafif yağmur

METAR: KMMK 180853Z AUTO 00000KT 9SM -RA OVC038 19/18 A2996 RMK AO2 RAB44 SLP145 P0001 60001 T01890178 55005 $

Saat: 05:15 (09:15 UTC)


TAF: eksik

4.000'den fazla havaalanı için hava durumu gözlemleri ve tahminleri (METAR ve TAF raporları).

Kullanılabilir istasyonlar harita üzerinde sarı ve kırmızı noktalarla gösterilir.

İstasyonun adını görmek için fareyi noktanın üzerinde gezdirin.

Sonrasında hava gözlem ve tahminlerini görmek için tıklayın.

Haritayı değiştirmek için: yaklaştırmak için siyah artı işaretli yeşil düğmeye ve uzaklaştırmak için de eksi işaretli düğmeye hızla tıklayın; bitişik haritalar için yeşil okları kullanın.


METAR-TAF: